Sells, Arizona
Current Conditions -  °F | °C
As of 7:50 PM on Wednesday 22 Oct 2014 (Local Time) from KRYN Reporting Station
Clear Clear  
Wind Chill: 73°   Ceiling: Unl
Heat Index: 73°   Visibility: 10mi
Dew Point: 52°   Wind: 6mph
Humidity: 47%   Direction: 310°NW
Pressure: 30.02"   Gusts: NA
Location:  31.91°N, 111.88°W
Report Text: KRYN 230250Z 31005KT 10SM CLR 23/11 A3002
Loading
Personal Weather Stations






























Interactive Weather Map
Tropical Storm Tracking
New forecast layout! Learn more

10-Day Weather Forecast

Advertisements
Track Severe Weather on mobile